»·PEaware :: N485KB KRAL-KOXR

N485KB :: KRAL-KOXR

FLIGHT INFORMATION

Flight Status: Arrived
Operator: Privately registered:
United States
More flights under this callsign
Pilot: Lance M. (26269)
Aircraft: CIRRUS SR-22
(SR22)
More flights by this aircraft type
Origin: KRAL Riverside Mun
United States
Destination: KOXR Oxnard
United States
More flights between these airports :: More routes between these airports
Route: PDZ V186 FIM
File this flight plan on PilotEdge
Remarks: TEC route ONTP14
Altitude:
(Current/Filed)
6,000ft
Speed:
(Current/Filed)
180kts
Departed: 08-Oct-19 03:41 PM
Arrived: 08-Oct-19 04:19 PM
Distance/Time
Traveled:
89nm/0:37
Distance/Time
To Go:
Arrived

Flight Plot

Page will automatically refresh every two minutes.


Map Options




Map Legend


Flown Route
Filed Route
Departure Airport
Arrival Airport
Navaid (VOR, NDB)
Fix

Horizontal Profiles

Position Reports

Time Latitude Longitude Heading Altitude Ground
Speed
08-Oct-19 15:29 33.951032 -117.446194 104 819ft 0kts
08-Oct-19 15:30 33.951032 -117.446194 104 819ft 0kts
08-Oct-19 15:31 33.951032 -117.446194 104 819ft 0kts
08-Oct-19 15:32 33.951032 -117.446194 104 819ft 0kts
08-Oct-19 15:33 33.951032 -117.446195 104 819ft 0kts
08-Oct-19 15:34 33.951032 -117.446195 104 819ft 0kts
08-Oct-19 15:35 33.951032 -117.446195 104 819ft 0kts
08-Oct-19 15:36 33.951032 -117.446195 104 819ft 0kts
08-Oct-19 15:37 33.951267 -117.444136 96 819ft 13kts
08-Oct-19 15:38 33.950483 -117.438423 105 819ft 27kts
08-Oct-19 15:39 33.949890 -117.435060 54 819ft 0kts
08-Oct-19 15:40 33.951029 -117.437545 283 819ft 53kts
08-Oct-19 15:41 33.957222 -117.465494 281 1786ft 102kts
08-Oct-19 15:42 33.951616 -117.495756 225 3185ft 105kts
08-Oct-19 15:43 33.927584 -117.520586 224 4016ft 143kts
08-Oct-19 15:44 33.932813 -117.569417 290 4010ft 169kts
08-Oct-19 15:45 33.950943 -117.621937 291 4336ft 157kts
08-Oct-19 15:46 33.966513 -117.666298 291 5475ft 134kts
08-Oct-19 15:47 33.981653 -117.709370 291 6013ft 159kts
08-Oct-19 15:48 34.000053 -117.761940 289 6009ft 175kts
08-Oct-19 15:49 34.017348 -117.817708 289 6012ft 178kts
08-Oct-19 15:50 34.034773 -117.874066 289 6014ft 179kts
08-Oct-19 15:51 34.052241 -117.930686 289 6013ft 179kts
08-Oct-19 15:52 34.069698 -117.987385 289 6010ft 179kts
08-Oct-19 15:53 34.087135 -118.044131 288 6005ft 180kts
08-Oct-19 15:54 34.104461 -118.100625 288 6000ft 180kts
08-Oct-19 15:55 34.121977 -118.157846 288 6002ft 180kts
08-Oct-19 15:56 34.139371 -118.214776 288 6013ft 180kts
08-Oct-19 15:57 34.156831 -118.272032 288 6015ft 180kts
08-Oct-19 15:58 34.174218 -118.329163 288 6017ft 180kts
08-Oct-19 15:59 34.191650 -118.386559 288 6016ft 181kts
08-Oct-19 16:00 34.209107 -118.444138 288 5998ft 182kts
08-Oct-19 16:01 34.226917 -118.501695 287 5991ft 182kts
08-Oct-19 16:02 34.224060 -118.562073 263 5992ft 180kts
08-Oct-19 16:03 34.219185 -118.622414 263 5545ft 174kts
08-Oct-19 16:04 34.214155 -118.682845 263 5078ft 190kts
08-Oct-19 16:05 34.208763 -118.747243 263 4681ft 192kts
08-Oct-19 16:06 34.203686 -118.807438 264 4252ft 158kts
08-Oct-19 16:07 34.199723 -118.854200 264 4197ft 124kts
08-Oct-19 16:08 34.198118 -118.894094 270 4045ft 113kts
08-Oct-19 16:09 34.198448 -118.930773 269 3700ft 102kts
08-Oct-19 16:10 34.198921 -118.966693 269 3349ft 108kts
08-Oct-19 16:11 34.199083 -119.002294 269 3171ft 105kts
08-Oct-19 16:12 34.199404 -119.037711 269 2674ft 104kts
08-Oct-19 16:13 34.199723 -119.073757 269 2114ft 108kts
08-Oct-19 16:14 34.200037 -119.110501 269 1519ft 110kts
08-Oct-19 16:15 34.200317 -119.144934 269 956ft 95kts
08-Oct-19 16:16 34.200489 -119.175684 269 455ft 80kts
08-Oct-19 16:17 34.200750 -119.200689 269 58ft 67kts
08-Oct-19 16:18 34.200433 -119.211013 242 44ft 9kts
08-Oct-19 16:19 34.199278 -119.206906 185 44ft 17kts

Navigation Log

Ident Type
Flight plan parsing failed, navigation log unavailable